Time;durP1;ratioP1;P1;durP2;ratioP2;P2;SDS_P1;SDS_P2;PMS_P1;PMS_P2;Temp;Humidity;BMP_temperature;BMP_pressure;BME280_temperature;BME280_humidity;BME280_pressure;Samples;Min_cycle;Max_cycle;Signal;HPM_P1;HPM_P2
2022/10/25 00:04:43;;;;;;;36.08;19.40;;;;;;;9.98;90.92;97996.50;10413070;28;20461;-55
2022/10/25 00:09:42;;;;;;;37.63;19.48;;;;;;;9.97;90.96;98005.09;10412706;28;20086;-54
2022/10/25 00:14:41;;;;;;;36.90;19.05;;;;;;;9.89;91.57;97983.47;10411931;28;20040;-54
2022/10/25 00:19:40;;;;;;;35.53;19.98;;;;;;;9.86;91.32;98002.44;10412853;28;20478;-54
2022/10/25 00:24:39;;;;;;;34.85;19.70;;;;;;;9.83;91.33;97992.06;10411624;28;20139;-53
2022/10/25 00:29:38;;;;;;;36.85;19.02;;;;;;;9.83;90.88;97992.06;10412487;28;20068;-53
2022/10/25 00:34:40;;;;;;;36.50;18.02;;;;;;;9.78;91.87;97994.63;10412272;28;20064;-53
2022/10/25 00:39:40;;;;;;;28.70;15.95;;;;;;;9.75;91.48;97998.94;10412129;28;20068;-54
2022/10/25 00:44:38;;;;;;;;;;;;;;;9.64;91.25;97985.91;10413821;28;20067;-54
2022/10/25 00:49:37;;;;;;;29.67;16.48;;;;;;;9.54;91.59;97987.56;10411992;28;20017;-53
2022/10/25 00:54:47;;;;;;;34.78;16.67;;;;;;;9.51;91.46;97978.91;10411789;28;20063;-53
2022/10/25 00:59:47;;;;;;;33.75;18.95;;;;;;;9.49;91.76;97971.13;10427174;28;20338;-54
2022/10/25 01:04:48;;;;;;;31.92;17.70;;;;;;;9.47;91.86;97969.41;10412051;28;20060;-54
2022/10/25 01:09:47;;;;;;;33.47;17.67;;;;;;;9.40;92.97;97970.22;10411339;28;20067;-54
2022/10/25 01:14:48;;;;;;;;;;;;;;;9.39;93.12;97968.47;10412172;28;20068;-53
2022/10/25 01:20:19;;;;;;;32.70;18.73;;;;;;;9.39;93.38;97973.63;10411519;28;19956;-54
2022/10/25 01:25:39;;;;;;;34.58;18.23;;;;;;;9.30;93.52;97964.97;10404854;28;20064;-54
2022/10/25 01:31:10;;;;;;;37.70;19.55;;;;;;;9.25;93.47;97963.16;10377524;28;20068;-53
2022/10/25 01:36:23;;;;;;;30.75;19.27;;;;;;;9.21;93.63;97964.84;10378118;28;20148;-54
2022/10/25 01:41:25;;;;;;;32.83;19.90;;;;;;;9.07;93.86;97962.16;10377284;28;20075;-54
2022/10/25 01:46:35;;;;;;;44.20;20.20;;;;;;;9.07;93.84;97956.97;10377214;28;20067;-54
2022/10/25 01:51:35;;;;;;;;;;;;;;;9.08;93.48;97944.91;10379559;28;20084;-55
2022/10/25 01:56:45;;;;;;;34.40;19.77;;;;;;;9.07;93.58;97941.44;10418152;28;20386;-54
2022/10/25 02:02:10;;;;;;;33.58;19.33;;;;;;;9.06;93.48;97946.59;10417801;28;20496;-54
2022/10/25 02:07:14;;;;;;;38.17;21.13;;;;;;;9.01;93.75;97940.53;10417363;28;20063;-54
2022/10/25 02:12:20;;;;;;;35.50;19.20;;;;;;;8.99;93.83;97937.06;10417353;28;20071;-53
2022/10/25 02:17:23;;;;;;;42.10;22.27;;;;;;;8.86;93.98;97916.25;10416691;28;20535;-53
2022/10/25 02:22:26;;;;;;;35.10;19.42;;;;;;;8.90;93.62;97930.97;10417222;28;20427;-53
2022/10/25 02:27:26;;;;;;;40.72;19.05;;;;;;;8.84;93.03;97930.03;10417433;28;20064;-54
2022/10/25 02:32:25;;;;;;;31.23;19.20;;;;;;;8.71;92.85;97921.28;10416161;28;20064;-54
2022/10/25 02:37:24;;;;;;;32.50;19.63;;;;;;;8.56;93.51;97936.69;10416086;28;20041;-54
2022/10/25 02:42:23;;;;;;;35.92;20.10;;;;;;;8.59;93.37;97939.28;10414783;28;20028;-54
2022/10/25 02:47:22;;;;;;;35.72;20.42;;;;;;;8.59;93.07;97928.94;10415760;28;20044;-53
2022/10/25 02:52:21;;;;;;;43.38;22.25;;;;;;;8.54;93.31;97938.38;10415321;28;20036;-54
2022/10/25 02:57:20;;;;;;;38.63;21.05;;;;;;;8.50;93.35;97942.63;10415383;28;20020;-54
2022/10/25 03:02:19;;;;;;;37.53;21.17;;;;;;;8.52;93.62;97928.88;10415148;28;20510;-54
2022/10/25 03:07:18;;;;;;;42.58;22.35;;;;;;;8.57;93.26;97928.06;10415126;28;20060;-54
2022/10/25 03:12:17;;;;;;;35.80;20.10;;;;;;;8.39;93.80;97928.72;10415075;28;20032;-53
2022/10/25 03:17:16;;;;;;;40.85;21.02;;;;;;;8.27;93.94;97924.28;10414328;28;20107;-53
2022/10/25 03:22:15;;;;;;;39.80;21.73;;;;;;;8.25;93.79;97931.19;10415093;28;20491;-53
2022/10/25 03:27:14;;;;;;;54.53;26.20;;;;;;;8.15;94.52;97912.09;10414337;28;20024;-53
2022/10/25 03:32:13;;;;;;;41.30;24.98;;;;;;;8.14;93.87;97907.78;10413968;28;20116;-54
2022/10/25 03:37:12;;;;;;;45.42;23.52;;;;;;;8.16;94.06;97916.44;10378662;28;20033;-54
2022/10/25 03:42:10;;;;;;;38.80;24.13;;;;;;;8.16;94.73;97895.75;10374828;28;20678;-54
2022/10/25 03:47:09;;;;;;;42.20;22.52;;;;;;;8.15;95.84;97898.31;10375419;28;20505;-54
2022/10/25 03:52:09;;;;;;;32.00;20.45;;;;;;;7.87;94.71;97909.22;10382930;28;20107;-54
2022/10/25 03:57:08;;;;;;;32.05;18.92;;;;;;;7.61;94.07;97921.78;10416386;28;20056;-54
2022/10/25 04:02:07;;;;;;;34.08;18.58;;;;;;;7.61;93.69;97937.28;10416393;28;20363;-54
2022/10/25 04:07:06;;;;;;;30.08;17.10;;;;;;;7.61;93.34;97924.38;10416329;28;20478;-53
2022/10/25 04:12:05;;;;;;;33.75;19.08;;;;;;;7.72;93.49;97924.50;10416406;28;20032;-56
2022/10/25 04:17:04;;;;;;;45.78;25.48;;;;;;;7.82;93.14;97912.56;10415907;28;20503;-56
2022/10/25 04:22:03;;;;;;;51.47;30.73;;;;;;;7.91;94.25;97915.28;10416349;28;20028;-56
2022/10/25 04:27:02;;;;;;;41.33;27.67;;;;;;;7.92;95.21;97918.72;10414385;28;20025;-56
2022/10/25 04:32:01;;;;;;;43.08;25.08;;;;;;;7.89;95.61;97929.88;10416078;28;20039;-55
2022/10/25 04:37:00;;;;;;;42.45;25.42;;;;;;;7.97;94.94;97923.13;10415962;28;20070;-55
2022/10/25 04:41:59;;;;;;;43.55;24.60;;;;;;;7.96;95.03;97933.41;10412909;28;20466;-54
2022/10/25 04:46:58;;;;;;;44.13;26.42;;;;;;;7.98;94.68;97922.25;10409981;28;20028;-53
2022/10/25 04:51:57;;;;;;;47.67;30.05;;;;;;;8.02;94.48;97913.69;10411929;28;20082;-53
2022/10/25 04:56:56;;;;;;;47.80;28.70;;;;;;;8.13;94.60;97919.00;10412016;28;20480;-54
2022/10/25 05:01:55;;;;;;;47.13;28.30;;;;;;;8.16;94.95;97920.75;10419490;28;20025;-53
2022/10/25 05:06:54;;;;;;;54.85;33.65;;;;;;;8.19;95.08;97920.78;10419510;28;20035;-54
2022/10/25 05:11:53;;;;;;;56.78;34.53;;;;;;;8.22;94.39;97924.25;10415844;28;20490;-54
2022/10/25 05:16:52;;;;;;;60.90;36.05;;;;;;;8.34;94.00;97922.66;10419086;28;20396;-53
2022/10/25 05:21:51;;;;;;;70.45;33.55;;;;;;;8.38;93.70;97919.25;10419934;28;20139;-53
2022/10/25 05:26:50;;;;;;;77.53;30.13;;;;;;;8.38;93.70;97927.00;10418771;28;20039;-53
2022/10/25 05:31:48;;;;;;;53.92;23.65;;;;;;;8.18;92.44;97934.56;10415463;28;20476;-54
2022/10/25 05:36:47;;;;;;;47.00;20.20;;;;;;;8.19;91.83;97952.66;10418925;28;20407;-53
2022/10/25 05:41:48;;;;;;;33.08;17.25;;;;;;;8.18;91.23;97963.00;10418149;28;20035;-54
2022/10/25 05:46:47;;;;;;;41.05;21.63;;;;;;;8.23;91.39;97969.09;10417969;28;20500;-54
2022/10/25 05:51:46;;;;;;;42.90;22.10;;;;;;;8.37;91.25;97977.84;10417457;28;20422;-54
2022/10/25 05:56:45;;;;;;;40.33;20.70;;;;;;;8.55;91.18;97971.13;10416492;28;20043;-54
2022/10/25 06:01:45;;;;;;;35.17;22.95;;;;;;;8.66;91.37;97995.41;10417531;28;20111;-53
2022/10/25 06:06:46;;;;;;;37.63;22.33;;;;;;;8.81;91.73;97982.63;10417186;28;20068;-53
2022/10/25 06:11:45;;;;;;;40.00;22.83;;;;;;;9.01;91.66;97982.81;10416845;28;20090;-54
2022/10/25 06:16:44;;;;;;;45.50;21.00;;;;;;;9.27;91.36;97993.38;10417233;28;20060;-53
2022/10/25 06:21:43;;;;;;;41.10;24.05;;;;;;;9.46;91.30;97999.59;10417113;28;20032;-54
2022/10/25 06:26:42;;;;;;;40.33;23.13;;;;;;;9.72;90.59;98010.16;10416699;28;20047;-57
2022/10/25 06:31:42;;;;;;;44.97;24.08;;;;;;;9.99;89.91;98003.41;10414970;28;20036;-53
2022/10/25 06:36:41;;;;;;;54.70;28.30;;;;;;;10.25;89.65;98000.91;10414346;28;20070;-54
2022/10/25 06:41:40;;;;;;;45.28;26.17;;;;;;;10.54;89.50;97992.38;10415475;28;20067;-54
2022/10/25 06:46:41;;;;;;;44.65;25.17;;;;;;;10.83;88.95;97995.91;10419414;28;20033;-54
2022/10/25 06:51:40;;;;;;;58.95;26.85;;;;;;;11.15;88.63;97987.34;10418375;28;20084;-53
2022/10/25 06:56:39;;;;;;;54.92;24.25;;;;;;;11.46;87.62;97987.31;10414417;28;20041;-54
2022/10/25 07:01:38;;;;;;;52.53;25.15;;;;;;;11.72;87.27;97974.28;10414057;28;20487;-54
2022/10/25 07:06:38;;;;;;;51.53;23.58;;;;;;;11.98;86.79;97960.34;10415243;28;20551;-53
2022/10/25 07:11:38;;;;;;;54.15;24.17;;;;;;;12.19;85.94;97975.88;10418211;28;20068;-54
2022/10/25 07:16:37;;;;;;;40.55;21.75;;;;;;;12.45;84.32;97962.78;10416652;28;20052;-53
2022/10/25 07:21:36;;;;;;;52.30;27.23;;;;;;;12.75;83.34;97960.00;10416033;28;20496;-53
2022/10/25 07:26:35;;;;;;;51.42;27.20;;;;;;;13.13;82.19;97960.59;10417410;28;20518;-53
2022/10/25 07:31:38;;;;;;;69.55;26.20;;;;;;;13.41;79.95;97951.69;10418681;28;20098;-54
2022/10/25 07:36:37;;;;;;;83.07;30.05;;;;;;;13.78;77.95;97967.88;10419921;28;20060;-54
2022/10/25 07:41:36;;;;;;;56.47;28.23;;;;;;;14.11;77.85;97966.63;10417855;28;20028;-53
2022/10/25 07:46:35;;;;;;;43.22;22.25;;;;;;;14.34;76.92;97979.41;10416324;28;20063;-53
2022/10/25 07:51:34;;;;;;;37.92;17.35;;;;;;;14.56;77.16;97961.69;10415109;28;20052;-54
2022/10/25 07:56:33;;;;;;;35.90;17.70;;;;;;;14.81;76.95;97953.56;10414808;28;20033;-54
2022/10/25 08:01:32;;;;;;;;;;;;;;;15.06;76.27;97956.66;10415391;28;20036;-55
2022/10/25 08:06:30;;;;;;;34.88;16.20;;;;;;;15.33;75.93;97946.63;10415567;28;20012;-54
2022/10/25 08:11:29;;;;;;;;;;;;;;;15.54;74.88;97945.41;10415843;28;20384;-54
2022/10/25 08:16:28;;;;;;;35.05;16.05;;;;;;;15.78;73.45;97933.59;10413299;28;19918;-54
2022/10/25 08:21:27;;;;;;;38.50;14.25;;;;;;;16.12;71.73;97935.59;10415018;28;20102;-54
2022/10/25 08:26:27;;;;;;;;;;;;;;;16.45;70.43;97934.88;10414717;28;20492;-54
2022/10/25 08:31:26;;;;;;;30.17;12.40;;;;;;;16.75;67.60;97934.22;10413756;28;19944;-54
2022/10/25 08:36:26;;;;;;;;;;;;;;;17.08;66.01;97927.38;10421183;28;20033;-54
2022/10/25 08:41:45;;;;;;;35.05;12.75;;;;;;;17.48;64.32;97926.38;10422015;28;19947;-54
2022/10/25 08:46:58;;;;;;;27.63;11.23;;;;;;;17.83;62.87;97929.84;10421400;28;20048;-55
2022/10/25 08:51:59;;;;;;;30.77;10.35;;;;;;;18.16;58.76;97928.91;10421422;28;20071;-54
2022/10/25 08:57:14;;;;;;;25.75;10.25;;;;;;;18.60;57.29;97923.25;10421156;28;20060;-54
2022/10/25 09:02:19;;;;;;;28.55;13.70;;;;;;;19.03;55.54;97919.28;10422120;28;20062;-54
2022/10/25 09:07:27;;;;;;;31.38;13.20;;;;;;;19.37;54.54;97921.66;10421613;28;20047;-54
2022/10/25 09:12:36;;;;;;;31.83;10.93;;;;;;;19.71;53.31;97917.03;10421854;28;20056;-55
2022/10/25 09:17:47;;;;;;;26.25;8.70;;;;;;;20.04;51.37;97909.69;10421493;28;20079;-55
2022/10/25 09:22:50;;;;;;;25.95;9.15;;;;;;;20.23;48.99;97878.25;10419641;28;20132;-55
2022/10/25 09:28:02;;;;;;;27.48;9.70;;;;;;;20.68;46.57;97898.50;10418618;28;20052;-55
2022/10/25 09:33:07;;;;;;;19.48;8.55;;;;;;;20.97;45.03;97888.56;10415008;28;20056;-55
2022/10/25 09:38:13;;;;;;;28.30;8.30;;;;;;;21.17;44.42;97883.31;10415565;28;20064;-56
2022/10/25 09:43:17;;;;;;;22.95;8.00;;;;;;;21.51;44.40;97872.22;10417529;28;20098;-54
2022/10/25 09:48:38;;;;;;;19.50;7.15;;;;;;;21.82;42.41;97870.88;10420877;28;20515;-54
2022/10/25 09:53:40;;;;;;;22.50;7.55;;;;;;;22.09;40.85;97865.31;10409740;28;20064;-54
2022/10/25 09:58:45;;;;;;;20.00;6.18;;;;;;;22.33;40.05;97866.81;10421635;28;20024;-54
2022/10/25 10:03:44;;;;;;;20.73;5.15;;;;;;;22.58;38.04;97855.06;10421149;28;20048;-54
2022/10/25 10:08:50;;;;;;;18.92;4.72;;;;;;;22.80;35.53;97846.97;10420982;28;20513;-54
2022/10/25 10:13:55;;;;;;;16.70;4.68;;;;;;;23.03;34.21;97843.19;10420744;28;20071;-54
2022/10/25 10:19:28;;;;;;;24.17;5.82;;;;;;;23.28;33.62;97834.88;10420199;28;20087;-54
2022/10/25 10:24:27;;;;;;;25.95;5.50;;;;;;;23.47;33.46;97847.19;10377266;28;20056;-54
2022/10/25 10:29:33;;;;;;;21.92;5.63;;;;;;;23.68;32.80;97831.94;10420219;28;20446;-54
2022/10/25 10:34:42;;;;;;;22.45;5.00;;;;;;;23.90;32.79;97821.94;10419562;28;20063;-54
2022/10/25 10:39:50;;;;;;;19.13;5.38;;;;;;;23.94;32.60;97817.34;10419408;28;20040;-54
2022/10/25 10:45:07;;;;;;;19.25;4.35;;;;;;;23.98;31.88;97810.91;10416132;28;20060;-54
2022/10/25 10:50:21;;;;;;;22.27;4.72;;;;;;;23.94;31.94;97807.59;10415757;28;20084;-54
2022/10/25 10:55:32;;;;;;;19.85;5.28;;;;;;;23.85;31.29;97802.78;10413284;28;20072;-54
2022/10/25 11:00:32;;;;;;;15.40;4.65;;;;;;;23.90;31.62;97799.88;10415298;28;20060;-55
2022/10/25 11:05:34;;;;;;;19.40;5.30;;;;;;;23.85;30.88;97790.38;10415426;28;20064;-54
2022/10/25 11:10:37;;;;;;;23.95;5.30;;;;;;;24.06;30.66;97792.81;10413368;28;20052;-54
2022/10/25 11:16:07;;;;;;;13.35;4.35;;;;;;;24.28;30.89;97785.38;10414836;28;20064;-54
2022/10/25 11:21:43;;;;;;;19.10;4.55;;;;;;;24.44;30.67;97782.72;10414334;28;20063;-55
2022/10/25 11:26:55;;;;;;;19.80;5.55;;;;;;;24.51;30.68;97775.28;10414262;28;20064;-54
2022/10/25 11:32:16;;;;;;;22.70;6.55;;;;;;;24.60;30.56;97771.25;10413951;28;20524;-55
2022/10/25 11:37:20;;;;;;;19.13;5.55;;;;;;;24.69;29.65;97752.13;10413773;28;20071;-55
2022/10/25 11:42:39;;;;;;;19.50;5.00;;;;;;;24.73;28.39;97751.03;10413378;28;20555;-55
2022/10/25 11:48:09;;;;;;;16.40;4.78;;;;;;;24.90;28.28;97750.06;10413775;28;20075;-55
2022/10/25 11:53:37;;;;;;;14.38;3.92;;;;;;;25.18;28.91;97735.97;10413451;28;20080;-55
2022/10/25 11:59:24;;;;;;;20.30;5.05;;;;;;;25.31;28.66;97741.38;10413040;28;20067;-55
2022/10/25 12:04:58;;;;;;;18.52;4.85;;;;;;;25.43;28.20;97739.78;10285629;28;20065;-55
2022/10/25 12:10:22;;;;;;;18.20;5.05;;;;;;;25.52;28.33;97736.56;10377054;28;20135;-55
2022/10/25 12:15:31;;;;;;;17.50;4.90;;;;;;;25.46;28.00;97740.47;10412855;28;20583;-55
2022/10/25 12:20:31;;;;;;;17.60;4.25;;;;;;;25.54;27.75;97732.03;10412656;28;20060;-55
2022/10/25 12:25:38;;;;;;;24.05;5.45;;;;;;;25.60;27.19;97728.13;10412555;28;20487;-55
2022/10/25 12:30:38;;;;;;;20.67;5.18;;;;;;;25.65;27.34;97721.59;10412116;28;20491;-55
2022/10/25 12:35:50;;;;;;;21.92;5.80;;;;;;;25.60;26.91;97718.38;10426597;28;20064;-55
2022/10/25 12:40:59;;;;;;;21.02;4.93;;;;;;;25.72;27.08;97722.91;10407670;28;20075;-55
2022/10/25 12:46:14;;;;;;;17.48;4.55;;;;;;;25.85;27.10;97724.78;10411260;28;20467;-55
2022/10/25 12:51:15;;;;;;;16.50;5.32;;;;;;;25.94;26.94;97729.50;10411140;28;20249;-55
2022/10/25 12:56:26;;;;;;;16.80;6.00;;;;;;;25.92;26.78;97731.41;10410903;28;20075;-56
2022/10/25 13:01:49;;;;;;;17.40;5.43;;;;;;;25.97;27.39;97726.66;10410915;28;20507;-56
2022/10/25 13:06:51;;;;;;;13.48;4.43;;;;;;;25.87;28.31;97725.53;10411409;28;20056;-55
2022/10/25 13:12:03;;;;;;;19.73;4.57;;;;;;;25.65;28.42;97723.41;10410805;28;20052;-56
2022/10/25 13:17:17;;;;;;;18.75;5.07;;;;;;;25.60;28.46;97739.63;10410200;28;20062;-55
2022/10/25 13:22:32;;;;;;;17.63;4.65;;;;;;;25.56;28.64;97737.25;10416821;28;20062;-55
2022/10/25 13:27:33;;;;;;;15.85;4.53;;;;;;;25.53;29.17;97735.63;10417781;28;20052;-55
2022/10/25 13:32:42;;;;;;;18.70;5.97;;;;;;;25.48;29.14;97735.03;10417903;28;20071;-55
2022/10/25 13:37:42;;;;;;;14.32;4.32;;;;;;;25.50;29.39;97738.44;10417766;28;20499;-55
2022/10/25 13:42:43;;;;;;;15.02;4.35;;;;;;;25.46;29.62;97737.78;10417208;28;20071;-55
2022/10/25 13:47:48;;;;;;;15.80;5.13;;;;;;;25.39;29.97;97730.31;10417961;28;20190;-55
2022/10/25 13:53:16;;;;;;;16.33;4.75;;;;;;;25.24;30.42;97740.91;10417755;28;20099;-55
2022/10/25 13:58:27;;;;;;;19.05;5.75;;;;;;;25.15;30.87;97738.78;10418624;28;20491;-55
2022/10/25 14:03:33;;;;;;;18.08;5.18;;;;;;;25.02;31.34;97751.13;10417778;28;20056;-55
2022/10/25 14:09:07;;;;;;;14.45;4.70;;;;;;;24.70;32.43;97748.53;10414712;28;20052;-55
2022/10/25 14:14:24;;;;;;;17.67;5.68;;;;;;;24.33;32.84;97755.09;10415252;28;20082;-55
2022/10/25 14:19:35;;;;;;;13.40;4.72;;;;;;;24.01;33.15;97753.28;10387618;28;20079;-55
2022/10/25 14:24:34;;;;;;;19.15;5.75;;;;;;;23.91;33.97;97760.06;10373134;28;20131;-55
2022/10/25 14:29:33;;;;;;;19.42;6.40;;;;;;;23.80;33.85;97757.97;10387284;28;20079;-56
2022/10/25 14:34:32;;;;;;;16.80;6.60;;;;;;;23.66;34.09;97764.97;10413518;28;20033;-55
2022/10/25 14:39:31;;;;;;;18.92;6.57;;;;;;;23.36;34.59;97771.78;10413431;28;20461;-55
2022/10/25 14:44:43;;;;;;;19.30;5.93;;;;;;;23.33;35.46;97769.28;10432168;28;20067;-55
2022/10/25 14:49:42;;;;;;;19.95;5.63;;;;;;;23.07;35.86;97773.31;10417016;28;20079;-56
2022/10/25 14:54:45;;;;;;;24.33;6.57;;;;;;;22.77;35.85;97776.56;10416359;28;20039;-55
2022/10/25 14:59:50;;;;;;;28.77;7.10;;;;;;;22.51;36.45;97792.84;10416547;28;20056;-55
2022/10/25 15:04:52;;;;;;;30.05;14.35;;;;;;;22.32;36.59;97779.63;10415217;28;20041;-56
2022/10/25 15:09:54;;;;;;;26.02;12.30;;;;;;;22.23;36.75;97788.88;10415614;28;20060;-55
2022/10/25 15:14:55;;;;;;;19.48;7.55;;;;;;;22.14;37.21;97792.78;10416803;28;20055;-55
2022/10/25 15:20:15;;;;;;;20.25;8.13;;;;;;;22.07;37.64;97793.16;10416348;28;20461;-55
2022/10/25 15:25:20;;;;;;;17.13;7.65;;;;;;;21.86;37.57;97809.03;10416244;28;20095;-55
2022/10/25 15:30:42;;;;;;;21.33;7.65;;;;;;;21.80;38.02;97817.25;10415952;28;20059;-56
2022/10/25 15:35:56;;;;;;;17.10;7.15;;;;;;;21.73;38.38;97815.81;10415877;28;20559;-55
2022/10/25 15:40:55;;;;;;;23.42;9.27;;;;;;;21.44;39.12;97822.41;10413004;28;20515;-55
2022/10/25 15:45:54;;;;;;;22.23;9.05;;;;;;;21.33;39.42;97833.41;10412325;28;20023;-55
2022/10/25 15:50:57;;;;;;;26.50;9.32;;;;;;;21.29;39.33;97839.78;10412975;28;20071;-56
2022/10/25 15:55:55;;;;;;;24.30;8.73;;;;;;;21.22;39.50;97847.09;10412961;28;20551;-56
2022/10/25 16:00:55;;;;;;;22.23;9.75;;;;;;;21.08;39.98;97857.34;10413246;28;20507;-55
2022/10/25 16:05:54;;;;;;;30.73;11.50;;;;;;;20.91;40.66;97858.88;10413199;28;20064;-55
2022/10/25 16:10:53;;;;;;;29.90;11.23;;;;;;;20.74;41.15;97857.84;10412734;28;20024;-55
2022/10/25 16:15:53;;;;;;;31.00;10.30;;;;;;;20.54;42.14;97866.53;10412871;28;20494;-58
2022/10/25 16:20:55;;;;;;;24.20;10.48;;;;;;;20.28;42.70;97866.63;10427441;28;20071;-55
2022/10/25 16:25:54;;;;;;;39.35;16.15;;;;;;;20.17;43.69;97874.06;10412359;28;20052;-54
2022/10/25 16:30:53;;;;;;;42.10;15.60;;;;;;;19.99;44.48;97872.13;10412161;28;20067;-55
2022/10/25 16:35:52;;;;;;;32.10;20.05;;;;;;;19.76;45.71;97879.09;10411149;28;20028;-54
2022/10/25 16:40:51;;;;;;;44.33;19.50;;;;;;;19.55;46.21;97874.56;10412195;28;20107;-54
2022/10/25 16:45:50;;;;;;;31.27;14.73;;;;;;;19.35;46.76;97870.84;10412064;28;20020;-55
2022/10/25 16:50:49;;;;;;;26.00;12.10;;;;;;;19.21;46.74;97879.22;10411362;28;20535;-54
2022/10/25 16:55:48;;;;;;;25.33;11.23;;;;;;;19.09;46.84;97877.00;10415461;28;20047;-54
2022/10/25 17:00:48;;;;;;;29.15;11.57;;;;;;;18.99;47.24;97875.56;10419762;28;20089;-55
2022/10/25 17:05:47;;;;;;;27.83;11.18;;;;;;;18.79;47.90;97890.25;10434748;28;20056;-54
2022/10/25 17:10:46;;;;;;;32.17;16.58;;;;;;;18.67;48.34;97880.09;10419505;28;20028;-55
2022/10/25 17:15:45;;;;;;;33.67;15.93;;;;;;;18.54;49.06;97884.84;10419658;28;20036;-55
2022/10/25 17:20:44;;;;;;;31.35;14.80;;;;;;;18.42;49.48;97885.22;10418620;28;20025;-54
2022/10/25 17:25:43;;;;;;;31.98;14.73;;;;;;;18.32;49.47;97889.91;10418548;28;20035;-55
2022/10/25 17:30:42;;;;;;;35.20;17.00;;;;;;;18.30;49.81;97896.97;10418475;28;20032;-55
2022/10/25 17:35:41;;;;;;;41.90;21.05;;;;;;;18.23;50.18;97899.84;10418013;28;20434;-55
2022/10/25 17:40:42;;;;;;;37.13;18.20;;;;;;;18.20;50.27;97906.03;10418029;28;20033;-55
2022/10/25 17:45:43;;;;;;;37.20;19.80;;;;;;;18.16;50.18;97910.50;10418126;28;20056;-55
2022/10/25 17:50:42;;;;;;;40.13;21.08;;;;;;;18.10;50.80;97910.69;10417647;28;20076;-55
2022/10/25 17:55:41;;;;;;;40.30;19.02;;;;;;;18.01;51.34;97908.34;10417426;28;20055;-54
2022/10/25 18:00:40;;;;;;;38.97;17.17;;;;;;;17.90;51.43;97908.63;10432967;28;20111;-54
2022/10/25 18:05:39;;;;;;;32.63;15.43;;;;;;;17.77;52.03;97912.50;10416544;28;20028;-54
2022/10/25 18:10:38;;;;;;;;;;;;;;;17.62;52.51;97916.38;10417645;28;20063;-55
2022/10/25 18:15:37;;;;;;;32.80;15.80;;;;;;;17.46;52.85;97926.41;10417400;28;19912;-55
2022/10/25 18:20:39;;;;;;;35.60;17.08;;;;;;;17.34;53.30;97930.19;10416481;28;20111;-54
2022/10/25 18:25:39;;;;;;;32.67;16.05;;;;;;;17.20;53.64;97921.81;10414865;28;20060;-55
2022/10/25 18:30:38;;;;;;;32.85;12.98;;;;;;;17.19;53.88;97941.09;10416974;28;20087;-54
2022/10/25 18:35:36;;;;;;;;;;;;;;;17.09;54.32;97944.81;10416987;28;20056;-54
2022/10/25 18:40:36;;;;;;;24.90;9.87;;;;;;;16.96;54.53;97940.75;10415933;28;20351;-54
2022/10/25 18:45:35;;;;;;;18.80;8.73;;;;;;;16.84;54.86;97944.53;10415796;28;20048;-55
2022/10/25 18:50:35;;;;;;;;;;;;;;;16.69;55.63;97950.97;10416084;28;20052;-54
2022/10/25 18:55:34;;;;;;;29.50;13.23;;;;;;;16.54;56.41;97951.31;10415631;28;20386;-54
2022/10/25 19:00:32;;;;;;;;;;;;;;;16.33;57.18;97950.88;10415826;28;20775;-55
2022/10/25 19:05:31;;;;;;;39.97;16.92;;;;;;;16.15;58.40;97966.97;10414867;28;19944;-54
2022/10/25 19:10:30;;;;;;;;;;;;;;;15.82;59.95;97979.78;10415466;28;20025;-55
2022/10/25 19:15:29;;;;;;;44.42;22.85;;;;;;;15.61;61.09;97989.72;10414708;28;20510;-54
2022/10/25 19:20:28;;;;;;;;;;;;;;;15.41;61.43;97981.34;10413555;28;20064;-55
2022/10/25 19:25:28;;;;;;;34.97;20.20;;;;;;;15.30;62.00;97978.06;10414149;28;19915;-55
2022/10/25 19:30:27;;;;;;;33.45;17.02;;;;;;;15.21;62.62;97990.38;10413128;28;20056;-54
2022/10/25 19:35:26;;;;;;;;;;;;;;;15.11;62.82;97994.03;10414360;28;20036;-55
2022/10/25 19:40:25;;;;;;;32.35;14.57;;;;;;;14.99;63.42;97989.88;10413656;28;19909;-54
2022/10/25 19:45:24;;;;;;;24.02;12.43;;;;;;;14.92;64.10;97997.78;10413309;28;20044;-55
2022/10/25 19:50:23;;;;;;;32.20;12.05;;;;;;;14.80;64.03;97999.72;10413238;28;20047;-54
2022/10/25 19:55:22;;;;;;;23.35;12.40;;;;;;;14.71;64.54;98005.06;10412652;28;20028;-54
2022/10/25 20:00:21;;;;;;;26.10;12.20;;;;;;;14.66;64.33;98004.22;10413740;28;20034;-54
2022/10/25 20:05:21;;;;;;;24.00;12.25;;;;;;;14.58;65.14;98013.91;10412920;28;20063;-55
2022/10/25 20:10:20;;;;;;;36.65;23.33;;;;;;;14.38;67.12;98020.25;10412939;28;20472;-54
2022/10/25 20:15:19;;;;;;;;;;;;;;;14.27;67.34;98022.13;10413585;28;20059;-55
2022/10/25 20:20:18;;;;;;;30.65;15.73;;;;;;;14.19;67.90;98026.53;10412560;28;19915;-55
2022/10/25 20:25:17;;;;;;;32.83;15.85;;;;;;;14.09;67.81;98035.38;10412752;28;20104;-56
2022/10/25 20:30:16;;;;;;;36.78;18.63;;;;;;;13.94;68.98;98037.25;10412545;28;20029;-55
2022/10/25 20:35:15;;;;;;;40.53;19.77;;;;;;;13.82;69.14;98026.94;10412115;28;20052;-55
2022/10/25 20:40:14;;;;;;;34.60;19.73;;;;;;;13.85;69.11;98029.53;10412551;28;20032;-55
2022/10/25 20:45:12;;;;;;;31.27;15.68;;;;;;;13.76;69.24;98040.91;10412118;28;20052;-55
2022/10/25 20:50:11;;;;;;;30.35;14.45;;;;;;;13.75;69.40;98040.94;10411869;28;20055;-55
2022/10/25 20:55:10;;;;;;;38.17;17.45;;;;;;;13.69;69.46;98040.97;10411559;28;20035;-55
2022/10/25 21:00:10;;;;;;;32.63;20.20;;;;;;;13.51;71.29;98044.56;10412073;28;20519;-55
2022/10/25 21:05:09;;;;;;;33.88;17.35;;;;;;;13.46;71.63;98052.41;10411728;28;20421;-54
2022/10/25 21:10:08;;;;;;;27.83;13.82;;;;;;;13.41;71.67;98051.59;10411185;28;20044;-54
2022/10/25 21:15:07;;;;;;;27.67;15.18;;;;;;;13.38;71.68;98050.78;10411441;28;20060;-55
2022/10/25 21:20:07;;;;;;;;;;;;;;;13.27;72.32;98058.66;10412075;28;20056;-55
2022/10/25 21:25:06;;;;;;;29.65;13.45;;;;;;;13.26;72.04;98062.16;10411630;28;19952;-54
2022/10/25 21:30:06;;;;;;;31.95;12.80;;;;;;;13.21;72.13;98054.34;10412286;28;20055;-55
2022/10/25 21:35:05;;;;;;;22.40;10.73;;;;;;;13.15;72.60;98060.47;10410965;28;20060;-55
2022/10/25 21:40:05;;;;;;;;;;;;;;;13.10;73.00;98057.03;10412769;28;20071;-54
2022/10/25 21:45:04;;;;;;;30.35;12.60;;;;;;;12.98;73.83;98064.03;10418422;28;19946;-55
2022/10/25 21:50:04;;;;;;;26.00;12.30;;;;;;;12.95;73.91;98067.50;10418189;28;20076;-55
2022/10/25 21:55:04;;;;;;;26.42;12.98;;;;;;;12.91;74.08;98073.66;10417855;28;20059;-54
2022/10/25 22:00:03;;;;;;;27.05;13.57;;;;;;;12.82;73.91;98065.88;10418126;28;20063;-55
2022/10/25 22:05:02;;;;;;;29.60;13.68;;;;;;;12.76;74.49;98063.28;10417048;28;20067;-54
2022/10/25 22:10:01;;;;;;;31.77;15.93;;;;;;;12.60;75.44;98060.78;10417561;28;20135;-54
2022/10/25 22:15:00;;;;;;;28.10;15.32;;;;;;;12.39;76.09;98061.72;10418157;28;20075;-55
2022/10/25 22:19:59;;;;;;;22.95;14.05;;;;;;;12.33;75.87;98058.25;10416821;28;20112;-54
2022/10/25 22:24:58;;;;;;;34.10;16.85;;;;;;;12.20;76.68;98071.25;10413306;28;20068;-54
2022/10/25 22:29:57;;;;;;;30.25;15.65;;;;;;;12.06;77.87;98067.81;10413374;28;20026;-54
2022/10/25 22:34:56;;;;;;;29.38;15.55;;;;;;;12.00;78.20;98066.09;10413508;28;20024;-55
2022/10/25 22:39:55;;;;;;;35.92;16.75;;;;;;;11.96;78.31;98066.13;10416016;28;20033;-54
2022/10/25 22:44:54;;;;;;;26.73;15.60;;;;;;;11.92;78.52;98069.56;10416405;28;20028;-54
2022/10/25 22:49:53;;;;;;;26.77;14.90;;;;;;;11.82;78.31;98079.97;10415174;28;20411;-55
2022/10/25 22:54:52;;;;;;;30.83;14.23;;;;;;;11.75;78.85;98067.84;10414265;28;20119;-55
2022/10/25 22:59:51;;;;;;;;;;;;;;;11.68;79.51;98061.78;10416152;28;20086;-54
2022/10/25 23:04:50;;;;;;;27.35;13.70;;;;;;;11.60;80.29;98071.34;10414808;28;20390;-55
2022/10/25 23:09:49;;;;;;;26.80;14.27;;;;;;;11.60;80.39;98073.09;10414917;28;20016;-54
2022/10/25 23:14:48;;;;;;;26.38;15.25;;;;;;;11.43;82.79;98076.53;10414691;28;20034;-54
2022/10/25 23:19:47;;;;;;;32.35;15.20;;;;;;;11.39;83.58;98090.38;10414469;28;20034;-54